Time;durP1;ratioP1;P1;durP2;ratioP2;P2;SDS_P1;SDS_P2;PMS_P1;PMS_P2;Temp;Humidity;BMP_temperature;BMP_pressure;BME280_temperature;BME280_humidity;BME280_pressure;Samples;Min_cycle;Max_cycle;Signal;HPM_P1;HPM_P2
2023/03/12 00:00:32;;;;;;;11.52;5.53;;;;;;;3.37;82.64;100957.44;5022571;28;20419;-70
2023/03/12 00:02:58;;;;;;;10.27;5.72;;;;;;;3.39;79.58;100957.25;4998612;28;20034;-68
2023/03/12 00:05:24;;;;;;;13.68;5.25;;;;;;;3.36;81.56;100953.06;5030468;28;20067;-70
2023/03/12 00:07:50;;;;;;;12.55;5.40;;;;;;;3.34;80.09;100955.09;5032231;28;20545;-70
2023/03/12 00:10:16;;;;;;;13.38;5.15;;;;;;;3.32;82.37;100945.59;5028404;28;20065;-68
2023/03/12 00:12:41;;;;;;;10.50;4.53;;;;;;;3.34;77.96;100943.59;5028456;28;20108;-69
2023/03/12 00:15:07;;;;;;;9.60;4.80;;;;;;;3.33;81.99;100939.22;5032583;28;20033;-70
2023/03/12 00:17:33;;;;;;;9.50;4.78;;;;;;;3.33;84.54;100941.91;5014585;28;20041;-67
2023/03/12 00:19:58;;;;;;;10.77;5.10;;;;;;;3.32;83.17;100935.72;5028696;28;20033;-69
2023/03/12 00:22:24;;;;;;;14.55;4.80;;;;;;;3.32;78.75;100925.03;5032177;28;20427;-68
2023/03/12 00:24:54;;;;;;;12.07;4.43;;;;;;;3.35;82.12;100929.19;5032173;28;20029;-68
2023/03/12 00:27:20;;;;;;;11.10;4.50;;;;;;;3.35;79.65;100915.81;5031286;28;20096;-68
2023/03/12 00:29:45;;;;;;;11.55;4.70;;;;;;;3.33;82.17;100910.63;5029742;28;20033;-68
2023/03/12 00:32:11;;;;;;;10.18;4.07;;;;;;;3.33;79.99;100907.13;5031559;28;20045;-67
2023/03/12 00:34:36;;;;;;;9.02;4.45;;;;;;;3.32;82.17;100909.00;5030871;28;20392;-68
2023/03/12 00:37:01;;;;;;;10.35;4.78;;;;;;;3.42;79.75;100907.94;5032155;28;20125;-68
2023/03/12 00:39:26;;;;;;;12.95;5.03;;;;;;;3.40;78.51;100902.75;5026735;28;20099;-68
2023/03/12 00:41:52;;;;;;;11.52;5.28;;;;;;;3.34;82.19;100901.59;5031770;28;20505;-68
2023/03/12 00:44:17;;;;;;;13.63;5.57;;;;;;;3.41;85.96;100907.06;5021069;28;20056;-68
2023/03/12 00:46:43;;;;;;;12.35;5.15;;;;;;;3.45;83.38;100912.91;5031088;28;20044;-68
2023/03/12 00:49:09;;;;;;;12.82;5.40;;;;;;;3.48;82.33;100901.88;5030960;28;20045;-66
2023/03/12 00:51:34;;;;;;;13.48;5.53;;;;;;;3.52;81.17;100897.84;5015212;28;20029;-68
2023/03/12 00:53:59;;;;;;;11.85;5.05;;;;;;;3.47;78.83;100894.84;5033047;28;20030;-68
2023/03/12 00:56:25;;;;;;;9.35;4.60;;;;;;;3.50;83.24;100894.47;5020832;28;20026;-67
2023/03/12 00:58:50;;;;;;;9.95;4.68;;;;;;;3.52;84.21;100895.16;5030791;28;20392;-66
2023/03/12 01:01:16;;;;;;;10.32;4.57;;;;;;;3.47;82.79;100894.84;5017956;28;20026;-68
2023/03/12 01:03:41;;;;;;;11.73;5.10;;;;;;;3.48;84.16;100896.50;5012802;28;20033;-68
2023/03/12 01:06:06;;;;;;;9.43;4.70;;;;;;;3.45;81.69;100894.19;5013056;28;20026;-68
2023/03/12 01:08:32;;;;;;;13.40;5.22;;;;;;;3.50;81.02;100884.63;5024477;28;20037;-66
2023/03/12 01:10:58;;;;;;;11.68;5.00;;;;;;;3.48;81.82;100872.44;5032642;28;20048;-68
2023/03/12 01:13:23;;;;;;;15.27;4.90;;;;;;;3.47;83.45;100873.44;5023617;28;20447;-68
2023/03/12 01:15:48;;;;;;;12.40;5.50;;;;;;;3.49;84.30;100866.91;5013724;28;20025;-67
2023/03/12 01:18:14;;;;;;;11.48;4.97;;;;;;;3.48;86.17;100867.09;5026641;28;20033;-67
2023/03/12 01:20:39;;;;;;;9.20;4.70;;;;;;;3.49;80.80;100866.09;5029911;28;20030;-67
2023/03/12 01:23:05;;;;;;;11.20;5.03;;;;;;;3.46;78.22;100861.09;5030357;28;20037;-67
2023/03/12 01:25:32;;;;;;;10.20;4.72;;;;;;;3.48;82.76;100859.88;5032032;28;20121;-68
2023/03/12 01:27:58;;;;;;;10.68;4.97;;;;;;;3.44;78.33;100863.09;5028609;28;20030;-67
2023/03/12 01:30:24;;;;;;;9.95;4.65;;;;;;;3.47;82.22;100873.44;5027324;28;20033;-68
2023/03/12 01:32:51;;;;;;;9.18;4.75;;;;;;;3.51;77.00;100877.44;5028852;28;20481;-68
2023/03/12 01:35:16;;;;;;;9.80;5.15;;;;;;;3.41;79.45;100869.63;5029191;28;20033;-67
2023/03/12 01:37:41;;;;;;;8.65;4.80;;;;;;;3.43;83.65;100866.78;5028560;28;20025;-67
2023/03/12 01:40:13;;;;;;;11.77;5.07;;;;;;;3.45;80.17;100870.13;5029723;28;20033;-68
2023/03/12 01:42:38;;;;;;;11.70;5.07;;;;;;;3.48;79.80;100859.88;5028550;28;20064;-68
2023/03/12 01:45:04;;;;;;;8.43;4.63;;;;;;;3.47;81.87;100846.69;5029120;28;20457;-68
2023/03/12 01:47:32;;;;;;;15.52;5.20;;;;;;;3.48;79.63;100848.34;5027315;28;20061;-68
2023/03/12 01:49:59;;;;;;;13.63;4.93;;;;;;;3.44;79.38;100847.91;5032911;28;20159;-68
2023/03/12 01:52:34;;;;;;;9.65;4.93;;;;;;;3.52;80.19;100836.28;5033265;28;20033;-67
2023/03/12 01:55:08;;;;;;;10.55;4.85;;;;;;;3.49;77.84;100839.34;5035506;28;20152;-67
2023/03/12 01:57:35;;;;;;;10.45;5.07;;;;;;;3.44;81.03;100841.69;5032207;28;20043;-67
2023/03/12 02:00:14;;;;;;;13.40;5.15;;;;;;;3.47;84.67;100833.31;5026130;28;20044;-66
2023/03/12 02:02:43;;;;;;;9.57;4.88;;;;;;;3.42;77.46;100833.84;5031384;28;20211;-67
2023/03/12 02:05:24;;;;;;;11.80;4.78;;;;;;;3.46;81.01;100824.47;5034037;28;20535;-68
2023/03/12 02:07:49;;;;;;;10.35;4.88;;;;;;;3.48;79.99;100824.28;5035116;28;20072;-68
2023/03/12 02:10:15;;;;;;;10.93;5.15;;;;;;;3.47;81.29;100825.28;5031887;28;20073;-68
2023/03/12 02:12:40;;;;;;;8.05;4.95;;;;;;;3.47;86.03;100822.59;5032872;28;20061;-67
2023/03/12 02:15:06;;;;;;;10.98;4.85;;;;;;;3.44;84.43;100815.78;5032396;28;20029;-67
2023/03/12 02:17:32;;;;;;;14.20;5.35;;;;;;;3.36;85.67;100813.97;5032809;28;20029;-67
2023/03/12 02:20:12;;;;;;;11.98;5.53;;;;;;;3.46;84.10;100800.38;5032973;28;20121;-68
2023/03/12 02:22:41;;;;;;;12.52;5.30;;;;;;;3.41;86.36;100800.06;5031142;28;20041;-67
2023/03/12 02:25:34;;;;;;;12.32;5.47;;;;;;;3.46;85.04;100794.22;5035595;28;20385;-68
2023/03/12 02:28:02;;;;;;;10.20;4.97;;;;;;;3.40;88.19;100797.56;5032949;28;20434;-67
2023/03/12 02:30:29;;;;;;;14.10;5.18;;;;;;;3.40;87.95;100794.91;5033699;28;20388;-68
2023/03/12 02:32:56;;;;;;;12.02;5.50;;;;;;;3.39;85.14;100795.94;5029905;28;20527;-68
2023/03/12 02:35:23;;;;;;;9.00;4.95;;;;;;;3.43;89.47;100787.38;5035611;28;20464;-68
2023/03/12 02:37:50;;;;;;;12.10;5.60;;;;;;;3.46;91.23;100794.22;5034418;28;20109;-68
2023/03/12 02:40:36;;;;;;;11.18;5.57;;;;;;;3.46;90.15;100791.53;5029947;28;20053;-68
2023/03/12 02:43:05;;;;;;;10.18;5.03;;;;;;;3.41;86.67;100804.59;5028323;28;20033;-68
2023/03/12 02:45:30;;;;;;;9.68;5.45;;;;;;;3.39;90.05;100802.09;5021420;28;20489;-67
2023/03/12 02:47:56;;;;;;;9.18;5.25;;;;;;;3.37;93.91;100807.63;5023493;28;20119;-68
2023/03/12 02:50:21;;;;;;;10.93;5.65;;;;;;;3.36;91.01;100808.63;5033137;28;20053;-67
2023/03/12 02:52:46;;;;;;;9.32;5.50;;;;;;;3.39;89.82;100806.63;5034783;28;20029;-68
2023/03/12 02:55:12;;;;;;;12.63;5.50;;;;;;;3.36;95.91;100799.78;5024992;28;20031;-68
2023/03/12 02:57:37;;;;;;;10.40;5.53;;;;;;;3.36;100.00;100800.59;5025659;28;20088;-67
2023/03/12 03:00:11;;;;;;;10.43;5.97;;;;;;;3.42;100.00;100806.28;5033998;28;20036;-67
2023/03/12 03:02:37;;;;;;;12.13;5.30;;;;;;;3.42;100.00;100795.56;5031877;28;20033;-68
2023/03/12 03:05:03;;;;;;;10.57;5.60;;;;;;;3.34;100.00;100791.94;5035060;28;20035;-68
2023/03/12 03:07:28;;;;;;;10.52;5.88;;;;;;;3.31;100.00;100784.28;5016924;28;20037;-67
2023/03/12 03:09:54;;;;;;;13.50;5.68;;;;;;;3.29;100.00;100780.09;5035012;28;20060;-67
2023/03/12 03:12:19;;;;;;;12.35;5.22;;;;;;;3.29;100.00;100786.31;5010589;28;20033;-68
2023/03/12 03:14:44;;;;;;;9.52;5.45;;;;;;;3.27;100.00;100787.50;5034780;28;20079;-67
2023/03/12 03:17:09;;;;;;;11.77;5.78;;;;;;;3.25;100.00;100793.00;5014827;28;20049;-67
2023/03/12 03:19:35;;;;;;;8.55;5.25;;;;;;;3.23;100.00;100787.03;5031643;28;20437;-67
2023/03/12 03:22:00;;;;;;;9.77;5.22;;;;;;;3.24;100.00;100791.34;5029509;28;20485;-68
2023/03/12 03:24:25;;;;;;;12.90;5.15;;;;;;;3.17;100.00;100785.03;5028923;28;20076;-68
2023/03/12 03:26:51;;;;;;;10.23;5.03;;;;;;;3.15;100.00;100784.38;5034393;28;20112;-68
2023/03/12 03:29:16;;;;;;;11.55;5.05;;;;;;;3.09;100.00;100779.75;5030925;28;20056;-67
2023/03/12 03:31:41;;;;;;;10.00;4.95;;;;;;;3.06;100.00;100780.94;5032141;28;20053;-67
2023/03/12 03:34:07;;;;;;;10.38;5.15;;;;;;;3.10;100.00;100786.78;5029546;28;20120;-68
2023/03/12 03:36:32;;;;;;;11.45;4.97;;;;;;;3.08;100.00;100776.25;5034257;28;20061;-67
2023/03/12 03:38:58;;;;;;;11.82;5.25;;;;;;;3.14;100.00;100774.69;5030572;28;20076;-67
2023/03/12 03:41:23;;;;;;;11.02;5.65;;;;;;;3.15;100.00;100768.34;5034497;28;20033;-68
2023/03/12 03:43:48;;;;;;;11.88;5.13;;;;;;;3.15;100.00;100761.16;5031033;28;20041;-68
2023/03/12 03:46:14;;;;;;;10.40;5.20;;;;;;;3.17;100.00;100744.94;5015785;28;20135;-67
2023/03/12 03:48:40;;;;;;;11.98;5.20;;;;;;;3.21;100.00;100740.88;5031431;28;20132;-67
2023/03/12 03:51:07;;;;;;;8.70;4.90;;;;;;;3.18;100.00;100742.06;5031680;28;20104;-68
2023/03/12 03:53:33;;;;;;;7.63;5.05;;;;;;;3.17;100.00;100729.72;5031737;28;20033;-67
2023/03/12 03:56:13;;;;;;;11.20;5.20;;;;;;;3.15;100.00;100725.56;5028976;28;20033;-66
2023/03/12 03:58:39;;;;;;;12.73;5.05;;;;;;;3.13;100.00;100716.91;5031847;28;20038;-67
2023/03/12 04:01:05;;;;;;;9.93;4.90;;;;;;;3.07;100.00;100722.97;5012108;28;20041;-68
2023/03/12 04:03:30;;;;;;;8.88;5.22;;;;;;;3.08;100.00;100716.59;5029946;28;20033;-67
2023/03/12 04:05:58;;;;;;;14.32;5.60;;;;;;;3.10;100.00;100727.97;5030089;28;20037;-67
2023/03/12 04:08:24;;;;;;;12.93;5.63;;;;;;;3.12;100.00;100723.25;5033096;28;20046;-67
2023/03/12 04:10:50;;;;;;;10.30;5.18;;;;;;;3.16;100.00;100728.06;5014030;28;20040;-67
2023/03/12 04:13:15;;;;;;;11.85;5.82;;;;;;;3.17;100.00;100718.19;5030527;28;20091;-66
2023/03/12 04:15:52;;;;;;;9.57;5.47;;;;;;;3.17;100.00;100707.50;5030450;28;20033;-68
2023/03/12 04:18:18;;;;;;;8.55;4.90;;;;;;;3.21;100.00;100699.97;5030510;28;20025;-67
2023/03/12 04:20:44;;;;;;;14.52;5.65;;;;;;;3.17;100.00;100703.00;5030872;28;20083;-68
2023/03/12 04:23:10;;;;;;;10.70;5.05;;;;;;;3.19;100.00;100694.78;5028457;28;20033;-67
2023/03/12 04:25:36;;;;;;;13.50;5.88;;;;;;;3.13;100.00;100693.66;5029111;28;20025;-68
2023/03/12 04:28:02;;;;;;;9.63;5.25;;;;;;;3.16;100.00;100687.13;5032475;28;20034;-68
2023/03/12 04:30:28;;;;;;;13.52;5.72;;;;;;;3.12;100.00;100678.63;5030838;28;20108;-67
2023/03/12 04:32:53;;;;;;;13.43;5.72;;;;;;;3.10;100.00;100675.31;5024895;28;20083;-67
2023/03/12 04:35:19;;;;;;;13.05;5.63;;;;;;;3.17;100.00;100678.06;5013325;28;20025;-67
2023/03/12 04:37:44;;;;;;;10.95;5.60;;;;;;;3.15;100.00;100664.88;5017191;28;20036;-67
2023/03/12 04:40:11;;;;;;;10.20;4.93;;;;;;;3.16;100.00;100673.75;5033458;28;20468;-66
2023/03/12 04:42:36;;;;;;;9.85;5.35;;;;;;;3.13;100.00;100652.72;5030056;28;20066;-67
2023/03/12 04:45:05;;;;;;;12.88;5.95;;;;;;;3.16;100.00;100660.38;5033251;28;20029;-67
2023/03/12 04:47:31;;;;;;;12.05;6.00;;;;;;;3.15;100.00;100678.25;5032772;28;20045;-68
2023/03/12 04:49:56;;;;;;;11.55;5.53;;;;;;;3.18;100.00;100677.06;5033367;28;20528;-68
2023/03/12 04:52:22;;;;;;;13.68;5.70;;;;;;;3.17;100.00;100670.91;5023954;28;20034;-67
2023/03/12 04:54:47;;;;;;;13.82;5.88;;;;;;;3.15;100.00;100667.56;5021187;28;20116;-68
2023/03/12 04:57:12;;;;;;;9.32;5.15;;;;;;;3.13;100.00;100663.44;5032867;28;20044;-67
2023/03/12 04:59:38;;;;;;;12.02;5.32;;;;;;;3.11;100.00;100658.25;5032710;28;20504;-67
2023/03/12 05:02:03;;;;;;;13.13;5.53;;;;;;;3.14;100.00;100654.38;5030669;28;20030;-67
2023/03/12 05:04:28;;;;;;;9.18;5.25;;;;;;;3.15;100.00;100645.34;5030986;28;20040;-68
2023/03/12 05:06:54;;;;;;;10.68;4.80;;;;;;;3.16;100.00;100639.00;5032863;28;20090;-67
2023/03/12 05:09:19;;;;;;;8.40;4.72;;;;;;;3.18;100.00;100631.63;5033050;28;20113;-68
2023/03/12 05:11:44;;;;;;;9.02;4.80;;;;;;;3.12;100.00;100624.31;5022032;28;20523;-68
2023/03/12 05:14:10;;;;;;;15.35;4.90;;;;;;;3.13;100.00;100634.00;5032659;28;20484;-68
2023/03/12 05:16:36;;;;;;;13.73;5.43;;;;;;;3.15;100.00;100621.28;5032177;28;20037;-68
2023/03/12 05:19:01;;;;;;;11.07;4.63;;;;;;;3.14;100.00;100622.28;5029000;28;20040;-67
2023/03/12 05:21:26;;;;;;;11.45;4.90;;;;;;;3.16;100.00;100625.63;5028772;28;20042;-68
2023/03/12 05:23:52;;;;;;;13.15;5.13;;;;;;;3.10;100.00;100621.00;5029680;28;20053;-66
2023/03/12 05:26:23;;;;;;;11.75;5.28;;;;;;;3.04;100.00;100630.59;5030218;28;20036;-68
2023/03/12 05:28:48;;;;;;;14.10;4.95;;;;;;;3.09;100.00;100614.81;5013398;28;20495;-67
2023/03/12 05:31:14;;;;;;;13.45;5.60;;;;;;;2.99;100.00;100612.41;5028303;28;20029;-67
2023/03/12 05:33:39;;;;;;;15.13;5.53;;;;;;;3.01;100.00;100622.94;5029089;28;20030;-66
2023/03/12 05:36:05;;;;;;;9.50;4.93;;;;;;;3.02;100.00;100613.91;5013674;28;20114;-67
2023/03/12 05:38:31;;;;;;;12.20;5.32;;;;;;;3.01;100.00;100604.22;5028683;28;20084;-68
2023/03/12 05:40:58;;;;;;;14.25;5.45;;;;;;;2.99;100.00;100608.91;5031998;28;20022;-68
2023/03/12 05:43:24;;;;;;;10.95;4.95;;;;;;;3.00;100.00;100600.72;5027199;28;20061;-67
2023/03/12 05:45:50;;;;;;;17.05;5.55;;;;;;;2.98;100.00;100597.38;5031133;28;20087;-67
2023/03/12 05:48:16;;;;;;;9.40;4.75;;;;;;;2.99;100.00;100598.22;5030740;28;20053;-67
2023/03/12 05:50:41;;;;;;;13.05;5.35;;;;;;;3.00;100.00;100597.19;5031023;28;20095;-68
2023/03/12 05:53:06;;;;;;;15.23;5.35;;;;;;;3.04;100.00;100592.34;5025225;28;20108;-68
2023/03/12 05:55:36;;;;;;;12.77;5.63;;;;;;;3.06;100.00;100598.31;5027432;28;20032;-67
2023/03/12 05:58:03;;;;;;;12.50;5.35;;;;;;;3.07;100.00;100600.81;5031230;28;20030;-68
2023/03/12 06:00:28;;;;;;;10.30;5.38;;;;;;;3.07;100.00;100600.00;5029444;28;20029;-66
2023/03/12 06:02:54;;;;;;;11.20;4.72;;;;;;;3.09;100.00;100603.31;5026244;28;20034;-68
2023/03/12 06:05:19;;;;;;;11.82;5.32;;;;;;;3.10;100.00;100602.31;5029728;28;20042;-68
2023/03/12 06:07:44;;;;;;;14.02;5.45;;;;;;;3.12;100.00;100605.59;5030829;28;20029;-67
2023/03/12 06:10:10;;;;;;;11.85;5.57;;;;;;;3.12;100.00;100606.44;5031892;28;20033;-67
2023/03/12 06:12:35;;;;;;;16.10;6.20;;;;;;;3.11;100.00;100606.63;5027627;28;20036;-67
2023/03/12 06:15:01;;;;;;;10.02;5.22;;;;;;;3.16;100.00;100614.94;5029990;28;20040;-68
2023/03/12 06:17:28;;;;;;;10.27;5.63;;;;;;;3.18;100.00;100607.56;5029767;28;20526;-66
2023/03/12 06:19:54;;;;;;;14.95;6.03;;;;;;;3.15;100.00;100618.63;5032156;28;20033;-68
2023/03/12 06:22:19;;;;;;;11.43;5.00;;;;;;;3.22;100.00;100624.91;5028119;28;20397;-68
2023/03/12 06:24:46;;;;;;;16.35;6.15;;;;;;;3.27;100.00;100625.16;5028835;28;20052;-68
2023/03/12 06:27:12;;;;;;;14.85;5.80;;;;;;;3.22;100.00;100624.91;5028944;28;20038;-68
2023/03/12 06:29:38;;;;;;;11.15;5.90;;;;;;;3.24;100.00;100622.88;5029355;28;20071;-66
2023/03/12 06:32:03;;;;;;;14.48;6.47;;;;;;;3.22;100.00;100618.72;5009270;28;20128;-68
2023/03/12 06:34:28;;;;;;;12.57;6.20;;;;;;;3.24;100.00;100606.00;5033387;28;20037;-66
2023/03/12 06:36:54;;;;;;;13.00;6.20;;;;;;;3.21;100.00;100606.38;5030523;28;20037;-68
2023/03/12 06:39:19;;;;;;;14.50;5.90;;;;;;;3.23;100.00;100607.00;5010736;28;20116;-68
2023/03/12 06:41:44;;;;;;;11.32;6.10;;;;;;;3.24;100.00;100600.66;4995973;28;20033;-68
2023/03/12 06:44:10;;;;;;;10.88;5.68;;;;;;;3.25;100.00;100596.97;5032877;28;20631;-67
2023/03/12 06:46:35;;;;;;;14.02;6.40;;;;;;;3.25;100.00;100588.94;5032023;28;20040;-67
2023/03/12 06:49:01;;;;;;;14.32;6.32;;;;;;;3.28;100.00;100586.72;5035294;28;20466;-67
2023/03/12 06:51:26;;;;;;;16.30;6.35;;;;;;;3.25;100.00;100571.06;5035676;28;20049;-70
2023/03/12 06:53:52;;;;;;;11.85;6.47;;;;;;;3.28;100.00;100568.00;4999492;28;20034;-67
2023/03/12 06:56:17;;;;;;;13.70;6.50;;;;;;;3.25;100.00;100559.53;5019743;28;20072;-67
2023/03/12 06:58:43;;;;;;;13.07;6.80;;;;;;;3.24;100.00;100564.03;5017388;28;20275;-67
2023/03/12 07:01:08;;;;;;;10.35;6.30;;;;;;;3.24;100.00;100569.38;5031629;28;20025;-68
2023/03/12 07:03:33;;;;;;;12.68;6.75;;;;;;;3.26;100.00;100556.69;5035098;28;20076;-68
2023/03/12 07:05:59;;;;;;;11.63;6.50;;;;;;;3.25;100.00;100563.03;5033322;28;20539;-67
2023/03/12 07:08:28;;;;;;;12.88;6.63;;;;;;;3.23;100.00;100551.69;5017422;28;20465;-67
2023/03/12 07:10:54;;;;;;;9.55;6.55;;;;;;;3.24;100.00;100553.34;4998314;28;20080;-68
2023/03/12 07:13:19;;;;;;;12.20;6.90;;;;;;;3.30;100.00;100551.78;5016192;28;20108;-68
2023/03/12 07:15:45;;;;;;;14.80;6.88;;;;;;;3.28;100.00;100562.66;5034652;28;20099;-67
2023/03/12 07:18:11;;;;;;;12.45;7.45;;;;;;;3.29;100.00;100556.31;5016061;28;20033;-68
2023/03/12 07:20:40;;;;;;;12.38;7.00;;;;;;;3.28;100.00;100556.50;5034724;28;20033;-67
2023/03/12 07:23:06;;;;;;;16.63;7.50;;;;;;;3.31;100.00;100559.63;5029615;28;20034;-67
2023/03/12 07:25:36;;;;;;;14.07;7.30;;;;;;;3.30;100.00;100565.97;5033353;28;20136;-67
2023/03/12 07:28:02;;;;;;;16.77;7.53;;;;;;;3.34;100.00;100567.28;5033035;28;20037;-67
2023/03/12 07:30:32;;;;;;;13.35;8.27;;;;;;;3.39;100.00;100573.91;5030874;28;20470;-68
2023/03/12 07:32:57;;;;;;;13.50;8.23;;;;;;;3.37;100.00;100566.06;5030008;28;20538;-67
2023/03/12 07:35:23;;;;;;;12.73;8.20;;;;;;;3.40;100.00;100571.06;5031651;28;20025;-68
2023/03/12 07:37:48;;;;;;;10.90;7.85;;;;;;;3.43;100.00;100580.53;5013851;28;20033;-68
2023/03/12 07:40:13;;;;;;;13.32;7.63;;;;;;;3.43;100.00;100573.38;5033163;28;20034;-67
2023/03/12 07:42:39;;;;;;;11.98;8.18;;;;;;;3.43;100.00;100564.50;5012812;28;20112;-67
2023/03/12 07:45:06;;;;;;;12.55;7.75;;;;;;;3.45;100.00;100581.19;5026819;28;20036;-67
2023/03/12 07:47:32;;;;;;;15.85;8.23;;;;;;;3.46;100.00;100578.34;5028626;28;20132;-67
2023/03/12 07:49:57;;;;;;;10.55;8.07;;;;;;;3.48;100.00;100572.81;5032660;28;20571;-67
2023/03/12 07:52:22;;;;;;;14.18;8.90;;;;;;;3.50;100.00;100573.44;5026101;28;20149;-68
2023/03/12 07:54:48;;;;;;;11.18;8.63;;;;;;;3.58;100.00;100583.22;5015160;28;20037;-68
2023/03/12 07:57:13;;;;;;;10.98;8.43;;;;;;;3.61;100.00;100572.13;5009139;28;20382;-67
2023/03/12 07:59:39;;;;;;;15.77;9.00;;;;;;;3.64;100.00;100572.63;5029544;28;20052;-67
2023/03/12 08:02:04;;;;;;;11.80;8.45;;;;;;;3.65;100.00;100571.56;5029326;28;20041;-67
2023/03/12 08:04:29;;;;;;;13.88;8.63;;;;;;;3.67;100.00;100572.25;5032383;28;20041;-68
2023/03/12 08:06:55;;;;;;;14.15;8.70;;;;;;;3.72;100.00;100566.31;5026152;28;20052;-66
2023/03/12 08:09:21;;;;;;;13.20;8.45;;;;;;;3.75;100.00;100565.13;5012207;28;20511;-68
2023/03/12 08:11:46;;;;;;;13.02;8.65;;;;;;;3.79;100.00;100567.25;5032656;28;20029;-67
2023/03/12 08:14:11;;;;;;;11.23;8.65;;;;;;;3.83;100.00;100562.34;5030929;28;20033;-67
2023/03/12 08:16:37;;;;;;;12.18;8.82;;;;;;;3.85;100.00;100563.81;5031341;28;20029;-69
2023/03/12 08:19:02;;;;;;;11.80;8.32;;;;;;;3.91;100.00;100559.56;5014033;28;20034;-67
2023/03/12 08:21:27;;;;;;;12.65;9.02;;;;;;;3.92;100.00;100561.19;5015915;28;20142;-67
2023/03/12 08:23:53;;;;;;;10.30;8.45;;;;;;;3.96;100.00;100573.19;5031567;28;20535;-68
2023/03/12 08:26:18;;;;;;;15.00;9.40;;;;;;;4.02;100.00;100571.63;5031550;28;20056;-67
2023/03/12 08:28:43;;;;;;;12.48;8.32;;;;;;;4.06;100.00;100572.88;5029884;28;20065;-68
2023/03/12 08:31:09;;;;;;;13.65;8.55;;;;;;;4.11;100.00;100569.63;5029318;28;20044;-68
2023/03/12 08:33:35;;;;;;;11.95;8.93;;;;;;;4.18;100.00;100570.53;5032336;28;20083;-68
2023/03/12 08:36:00;;;;;;;12.82;9.07;;;;;;;4.22;100.00;100582.53;5029844;28;20072;-68
2023/03/12 08:38:26;;;;;;;12.82;8.73;;;;;;;4.28;100.00;100579.09;5010641;28;20514;-68
2023/03/12 08:40:56;;;;;;;10.23;9.07;;;;;;;4.39;100.00;100596.53;5012400;28;20063;-69
2023/03/12 08:43:22;;;;;;;9.52;8.15;;;;;;;4.42;100.00;100588.94;5030624;28;20045;-68
2023/03/12 08:45:56;;;;;;;11.40;8.93;;;;;;;4.44;100.00;100597.63;5019839;28;20390;-68
2023/03/12 08:48:21;;;;;;;12.20;9.40;;;;;;;4.49;100.00;100589.00;5006403;28;20394;-67
2023/03/12 08:50:46;;;;;;;12.50;9.75;;;;;;;4.54;100.00;100599.16;5013138;28;20101;-67
2023/03/12 08:53:12;;;;;;;13.05;10.55;;;;;;;4.60;100.00;100601.91;5012764;28;20135;-68
2023/03/12 08:55:37;;;;;;;14.50;10.73;;;;;;;4.63;100.00;100602.53;5020857;28;20033;-69
2023/03/12 08:58:02;;;;;;;15.60;11.98;;;;;;;4.66;100.00;100613.69;5031415;28;20406;-68
2023/03/12 09:00:28;;;;;;;17.05;12.63;;;;;;;4.70;100.00;100609.59;5031551;28;20037;-67
2023/03/12 09:02:56;;;;;;;16.77;13.10;;;;;;;4.78;100.00;100612.16;5014340;28;20037;-67
2023/03/12 09:05:23;;;;;;;19.15;14.38;;;;;;;4.83;100.00;100602.69;5031407;28;20033;-67
2023/03/12 09:07:48;;;;;;;19.75;15.98;;;;;;;4.87;100.00;100615.53;5032454;28;20112;-68
2023/03/12 09:10:14;;;;;;;25.52;18.80;;;;;;;4.99;100.00;100605.09;5014382;28;20117;-68
2023/03/12 09:12:39;;;;;;;24.73;19.23;;;;;;;5.07;100.00;100607.66;5023930;28;20112;-69
2023/03/12 09:15:06;;;;;;;24.15;17.92;;;;;;;5.14;100.00;100605.84;5032142;28;20037;-69
2023/03/12 09:17:31;;;;;;;22.80;18.45;;;;;;;5.24;100.00;100607.34;5012359;28;20042;-68
2023/03/12 09:19:56;;;;;;;24.35;19.20;;;;;;;5.29;100.00;100605.75;5027519;28;20044;-67
2023/03/12 09:22:22;;;;;;;25.58;19.65;;;;;;;5.39;100.00;100599.19;5029536;28;20041;-69
2023/03/12 09:24:47;;;;;;;25.80;20.00;;;;;;;5.47;100.00;100604.41;5013856;28;20037;-67
2023/03/12 09:27:12;;;;;;;25.70;20.35;;;;;;;5.50;100.00;100601.34;5028234;28;20121;-70
2023/03/12 09:29:38;;;;;;;26.65;21.60;;;;;;;5.56;100.00;100599.72;5032516;28;20083;-70
2023/03/12 09:32:03;;;;;;;32.92;26.58;;;;;;;5.68;100.00;100601.63;5025817;28;20087;-71
2023/03/12 09:34:29;;;;;;;28.88;24.52;;;;;;;5.74;100.00;100607.25;5029550;28;20496;-71
2023/03/12 09:36:54;;;;;;;29.42;23.77;;;;;;;5.83;100.00;100609.56;5030439;28;20068;-75
2023/03/12 09:39:21;;;;;;;28.08;23.42;;;;;;;5.89;100.00;100610.63;5029471;28;20056;-75
2023/03/12 09:41:47;;;;;;;27.35;22.85;;;;;;;6.00;100.00;100604.69;5030498;28;20025;-73
2023/03/12 09:44:28;;;;;;;27.67;23.75;;;;;;;6.06;100.00;100604.94;5010788;28;20025;-73
2023/03/12 09:46:57;;;;;;;26.92;23.98;;;;;;;6.13;100.00;100612.00;5029783;28;20100;-70
2023/03/12 09:49:42;;;;;;;27.63;23.63;;;;;;;6.21;100.00;100619.03;5031021;28;20049;-73
2023/03/12 09:52:21;;;;;;;28.85;24.95;;;;;;;6.29;100.00;100623.41;5028991;28;20080;-73
2023/03/12 09:54:57;;;;;;;27.60;24.67;;;;;;;6.35;100.00;100630.66;5015780;28;20116;-73
2023/03/12 09:57:28;;;;;;;27.17;24.15;;;;;;;6.42;100.00;100631.50;5013222;28;20568;-73
2023/03/12 09:59:54;;;;;;;27.70;24.63;;;;;;;6.44;100.00;100639.38;5016777;28;20042;-75
2023/03/12 10:02:29;;;;;;;27.80;23.60;;;;;;;6.47;100.00;100644.34;4993307;28;20061;-72
2023/03/12 10:05:16;;;;;;;28.15;25.15;;;;;;;6.54;100.00;100637.13;5027081;28;20033;-73
2023/03/12 10:07:55;;;;;;;29.55;24.67;;;;;;;6.59;100.00;100644.56;5032574;28;20536;-74
2023/03/12 10:10:27;;;;;;;29.45;24.17;;;;;;;6.66;100.00;100650.81;4999942;28;20588;-76
2023/03/12 10:13:16;;;;;;;29.80;24.58;;;;;;;6.71;100.00;100642.94;5016118;28;20485;-75
2023/03/12 10:15:53;;;;;;;28.67;25.10;;;;;;;6.79;100.00;100650.78;5016140;28;20065;-72
2023/03/12 10:18:33;;;;;;;33.63;26.33;;;;;;;6.84;100.00;100637.56;5016531;28;20045;-75
2023/03/12 10:21:10;;;;;;;31.48;25.83;;;;;;;6.88;100.00;100641.53;5007855;28;20104;-75
2023/03/12 10:23:50;;;;;;;33.42;25.23;;;;;;;6.90;100.00;100636.75;5008842;28;20424;-73
2023/03/12 10:26:34;;;;;;;34.10;26.58;;;;;;;6.91;100.00;100635.72;5035390;28;20021;-75
2023/03/12 10:29:04;;;;;;;36.80;26.23;;;;;;;6.97;100.00;100639.44;5024770;28;20049;-76
2023/03/12 10:31:36;;;;;;;39.33;26.88;;;;;;;7.01;100.00;100640.69;5023416;28;20061;-72
2023/03/12 10:34:10;;;;;;;45.42;28.30;;;;;;;7.05;100.00;100641.09;5023619;28;20489;-73
2023/03/12 10:36:38;;;;;;;41.55;27.08;;;;;;;7.09;100.00;100637.78;5020781;28;20109;-70
2023/03/12 10:39:13;;;;;;;42.15;27.95;;;;;;;7.13;100.00;100638.19;5027888;28;20037;-75
2023/03/12 10:41:41;;;;;;;52.40;31.38;;;;;;;7.20;100.00;100643.56;5035727;28;20037;-75
2023/03/12 10:44:08;;;;;;;53.10;31.50;;;;;;;7.27;100.00;100633.63;5017873;28;20025;-74
2023/03/12 10:46:46;;;;;;;46.35;29.95;;;;;;;7.35;100.00;100624.50;5017871;28;20037;-72
2023/03/12 10:49:20;;;;;;;48.55;29.05;;;;;;;7.39;100.00;100637.34;5033524;28;20050;-75
2023/03/12 10:51:55;;;;;;;44.53;27.45;;;;;;;7.49;100.00;100617.25;5003758;28;20038;-72
2023/03/12 10:54:27;;;;;;;41.38;25.73;;;;;;;7.53;100.00;100627.38;5014177;28;20034;-75
2023/03/12 10:56:52;;;;;;;55.47;27.17;;;;;;;7.56;100.00;100637.75;5014303;28;20038;-74
2023/03/12 10:59:24;;;;;;;46.30;26.85;;;;;;;7.63;100.00;100632.34;5014437;28;20358;-73
2023/03/12 11:01:51;;;;;;;46.83;25.98;;;;;;;7.71;100.00;100629.41;5014640;28;20033;-74
2023/03/12 11:04:32;;;;;;;48.10;25.42;;;;;;;7.83;100.00;100626.88;5023811;28;20517;-74
2023/03/12 11:07:05;;;;;;;47.77;25.03;;;;;;;7.90;100.00;100630.41;5014866;28;20078;-74
2023/03/12 11:09:31;;;;;;;50.10;24.25;;;;;;;7.93;100.00;100632.66;5005267;28;20025;-71
2023/03/12 11:11:56;;;;;;;50.80;22.20;;;;;;;8.01;100.00;100645.06;5013972;28;20045;-74
2023/03/12 11:14:24;;;;;;;48.90;22.33;;;;;;;8.09;100.00;100639.44;5024980;28;20065;-73
2023/03/12 11:16:51;;;;;;;43.70;20.90;;;;;;;8.09;100.00;100634.06;5034675;28;20461;-72
2023/03/12 11:19:30;;;;;;;47.13;21.17;;;;;;;8.14;100.00;100645.03;5033773;28;20033;-70